Time;durP1;ratioP1;P1;durP2;ratioP2;P2;SDS_P1;SDS_P2;PMS_P1;PMS_P2;Temp;Humidity;BMP_temperature;BMP_pressure;BME280_temperature;BME280_humidity;BME280_pressure;Samples;Min_cycle;Max_cycle;Signal;HPM_P1;HPM_P2
2022/06/15 00:01:53;;;;;;;;;23.67;21.33;;;;;22.05;73.89;100093.53;5072598;28;45668;-72
2022/06/15 00:04:19;;;;;;;;;22.67;20.00;;;;;22.23;73.94;100121.47;5063396;28;45573;-81
2022/06/15 00:06:45;;;;;;;;;25.00;24.00;;;;;22.09;74.00;100107.63;5066183;28;45873;-72
2022/06/15 00:09:11;;;;;;;;;28.67;25.33;;;;;22.02;73.76;100093.63;5055806;28;45453;-81
2022/06/15 00:11:41;;;;;;;;;25.75;23.50;;;;;22.22;74.16;100134.81;5073821;28;45526;-72
2022/06/15 00:14:19;;;;;;;;;22.75;22.25;;;;;22.21;74.60;100144.56;5062123;28;45677;-72
2022/06/15 00:16:45;;;;;;;;;28.67;23.67;;;;;22.20;74.65;100136.63;5070962;28;45423;-72
2022/06/15 00:19:11;;;;;;;;;25.75;25.25;;;;;22.14;74.47;100126.13;5072845;28;45370;-81
2022/06/15 00:21:37;;;;;;;;;23.75;20.75;;;;;21.98;74.21;100097.25;5076591;28;45428;-81
2022/06/15 00:24:03;;;;;;;;;22.00;20.67;;;;;22.16;73.97;100127.88;5070371;28;45433;-73
2022/06/15 00:26:29;;;;;;;;;23.00;22.33;;;;;22.01;73.63;100102.50;5069517;28;46118;-82
2022/06/15 00:28:55;;;;;;;;;25.75;22.50;;;;;22.21;74.47;100133.06;5074900;28;45451;-73
2022/06/15 00:31:21;;;;;;;;;25.75;24.00;;;;;22.22;74.40;100135.69;5072960;28;45836;-72
2022/06/15 00:33:47;;;;;;;;;21.00;20.33;;;;;22.10;73.97;100125.31;5065030;28;45294;-74
2022/06/15 00:36:17;;;;;;;;;21.00;21.00;;;;;21.87;73.99;100109.94;5076999;28;46100;-82
2022/06/15 00:38:53;;;;;;;;;20.00;20.00;;;;;22.04;74.27;100150.31;5073594;28;45526;-73
2022/06/15 00:41:24;;;;;;;;;25.75;23.50;;;;;21.95;73.83;100155.84;5076800;28;45394;-81
2022/06/15 00:43:58;;;;;;;;;21.67;19.67;;;;;21.87;74.46;100160.47;5075300;28;45616;-73
2022/06/15 00:46:46;;;;;;;;;22.33;20.67;;;;;21.79;74.87;100171.28;5073210;28;45458;-73
2022/06/15 00:49:18;;;;;;;;;25.25;23.00;;;;;21.73;75.12;100155.47;5077105;28;45261;-74
2022/06/15 00:51:46;;;;;;;;;23.25;21.75;;;;;21.71;73.95;100164.38;5071059;28;45395;-73
2022/06/15 00:54:13;;;;;;;;;24.25;23.00;;;;;21.62;75.82;100163.66;5071960;28;45342;-74
2022/06/15 00:56:40;;;;;;;;;26.00;22.50;;;;;21.58;75.84;100158.44;5067555;28;46963;-79
2022/06/15 00:59:24;;;;;;;;;24.75;22.50;;;;;21.53;76.45;100161.22;5076573;28;45535;-79
2022/06/15 01:01:50;;;;;;;;;29.00;24.50;;;;;21.54;76.14;100164.72;5071052;28;45495;-79
2022/06/15 01:04:19;;;;;;;;;23.25;22.50;;;;;21.53;76.39;100166.53;5069113;28;45504;-75
2022/06/15 01:07:04;;;;;;;;;20.50;19.50;;;;;21.22;76.22;100113.09;5065033;28;46129;-74
2022/06/15 01:09:35;;;;;;;;;20.50;18.75;;;;;21.52;76.11;100155.91;5073807;28;45496;-73
2022/06/15 01:12:26;;;;;;;;;25.25;23.50;;;;;21.10;76.27;100092.13;5078636;28;45446;-80
2022/06/15 01:15:06;;;;;;;;;22.75;22.25;;;;;21.50;76.79;100166.56;5077400;28;45333;-74
2022/06/15 01:17:58;;;;;;;;;25.33;24.00;;;;;21.50;76.53;100153.28;5077397;28;45394;-73
2022/06/15 01:20:40;;;;;;;;;25.75;22.25;;;;;21.51;76.32;100154.19;5068772;28;45504;-80
2022/06/15 01:23:26;;;;;;;;;26.75;25.50;;;;;21.45;76.13;100157.84;5077524;28;45542;-80
2022/06/15 01:26:20;;;;;;;;;25.75;24.00;;;;;21.36;76.05;100153.53;5077439;28;45657;-80
2022/06/15 01:28:51;;;;;;;;;25.25;22.75;;;;;21.34;76.20;100157.13;5075790;28;46232;-78
2022/06/15 01:31:40;;;;;;;;;25.75;23.00;;;;;21.33;76.09;100147.41;5077834;28;45452;-80
2022/06/15 01:34:36;;;;;;;;;25.50;23.25;;;;;21.30;76.08;100151.00;5077491;28;45433;-73
2022/06/15 01:37:02;;;;;;;;;25.75;22.75;;;;;21.26;76.35;100157.28;5077723;28;45489;-80
2022/06/15 01:39:56;;;;;;;;;23.00;21.50;;;;;21.23;76.77;100158.25;5077594;28;46056;-80
2022/06/15 01:42:31;;;;;;;;;26.00;24.50;;;;;21.23;76.94;100168.00;5076339;27;45377;-74
2022/06/15 01:45:01;;;;;;;;;22.50;20.75;;;;;21.18;76.87;100153.91;5077258;28;45177;-73
2022/06/15 01:47:31;;;;;;;;;24.25;21.50;;;;;21.24;76.66;100169.72;5077655;28;45529;-72
2022/06/15 01:50:03;;;;;;;;;26.33;22.00;;;;;21.23;76.12;100176.84;5076908;28;46195;-73
2022/06/15 01:52:36;;;;;;;;;23.25;21.75;;;;;21.20;76.32;100173.34;5076417;28;45483;-80
2022/06/15 01:55:40;;;;;;;;;23.50;23.00;;;;;21.15;76.12;100170.81;5075706;28;45502;-74
2022/06/15 01:58:09;;;;;;;;;26.25;24.25;;;;;21.07;76.62;100170.06;5039083;28;45506;-76
2022/06/15 02:00:36;;;;;;;;;25.75;21.75;;;;;21.06;77.05;100182.47;5074214;28;46080;-73
2022/06/15 02:03:14;;;;;;;;;30.75;27.00;;;;;21.07;76.97;100175.38;5074668;28;45655;-75
2022/06/15 02:06:07;;;;;;;;;26.50;22.25;;;;;21.01;76.54;100181.69;5074565;28;45533;-73
2022/06/15 02:08:53;;;;;;;;;26.00;23.00;;;;;20.96;76.78;100180.03;5078057;28;45494;-73
2022/06/15 02:11:28;;;;;;;;;25.50;24.50;;;;;20.92;76.72;100171.22;5078185;27;46094;-73
2022/06/15 02:13:59;;;;;;;;;27.50;24.75;;;;;20.90;77.38;100169.50;5077642;28;45480;-73
2022/06/15 02:16:30;;;;;;;;;23.50;21.50;;;;;20.79;77.44;100151.09;5078450;28;45777;-73
2022/06/15 02:18:57;;;;;;;;;21.25;20.25;;;;;20.68;77.67;100140.69;5078243;28;45496;-79
2022/06/15 02:21:26;;;;;;;;;22.67;20.33;;;;;20.88;77.24;100171.31;5077786;28;45532;-72
2022/06/15 02:23:56;;;;;;;;;29.25;22.25;;;;;20.76;77.15;100141.44;5077586;28;45565;-77
2022/06/15 02:26:26;;;;;;;;;23.00;21.67;;;;;20.88;76.91;100176.63;5075167;28;45323;-72
2022/06/15 02:28:56;;;;;;;;;25.75;25.00;;;;;20.86;76.99;100169.56;5078048;28;45630;-72
2022/06/15 02:31:22;;;;;;;;;25.75;23.00;;;;;20.83;76.71;100172.28;5075962;28;46139;-72
2022/06/15 02:33:54;;;;;;;;;21.75;21.75;;;;;20.81;77.17;100170.53;5078257;28;45528;-72
2022/06/15 02:36:21;;;;;;;;;24.25;22.25;;;;;20.67;77.26;100152.19;5078903;28;45509;-72
2022/06/15 02:38:49;;;;;;;;;25.75;22.25;;;;;20.76;77.42;100170.63;5078330;27;45427;-71
2022/06/15 02:41:18;;;;;;;;;24.50;21.25;;;;;20.73;77.32;100173.34;5077765;28;46453;-72
2022/06/15 02:43:44;;;;;;;;;24.25;22.75;;;;;20.73;77.29;100188.38;5077092;28;47222;-72
2022/06/15 02:46:14;;;;;;;;;24.75;23.25;;;;;20.62;77.14;100160.25;5076906;28;45346;-75
2022/06/15 02:48:40;;;;;;;;;25.50;21.75;;;;;20.69;77.29;100179.63;5078342;28;45154;-78
2022/06/15 02:51:18;;;;;;;;;23.25;21.25;;;;;20.66;77.11;100184.97;5077622;28;46224;-72
2022/06/15 02:53:46;;;;;;;;;25.00;23.50;;;;;20.64;77.50;100189.44;5077829;28;45516;-72
2022/06/15 02:56:14;;;;;;;;;23.50;23.50;;;;;20.46;77.46;100167.56;5078056;28;45471;-72
2022/06/15 02:58:44;;;;;;;;;25.25;23.25;;;;;20.30;76.80;100131.59;5077464;28;45477;-73
2022/06/15 03:01:10;;;;;;;;;20.33;19.67;;;;;20.57;76.84;100185.09;5076782;28;46169;-72
2022/06/15 03:03:39;;;;;;;;;27.00;22.33;;;;;20.57;76.95;100187.75;5076871;28;45584;-73
2022/06/15 03:06:17;;;;;;;;;24.75;20.75;;;;;20.23;77.00;100133.47;5077211;28;45448;-72
2022/06/15 03:08:42;;;;;;;;;23.75;23.25;;;;;20.53;76.65;100186.94;5075294;28;45367;-78
2022/06/15 03:11:08;;;;;;;;;25.50;24.50;;;;;20.52;77.21;100186.97;5075574;28;46114;-73
2022/06/15 03:13:34;;;;;;;;;25.25;23.75;;;;;20.34;77.54;100170.44;5076213;28;45622;-74
2022/06/15 03:16:02;;;;;;;;;20.75;20.25;;;;;20.39;77.41;100184.50;5076298;28;45628;-78
2022/06/15 03:18:28;;;;;;;;;25.75;22.00;;;;;20.42;77.33;100187.09;5075893;28;45526;-78
2022/06/15 03:20:58;;;;;;;;;24.25;22.00;;;;;20.40;77.27;100191.56;5076106;28;46108;-74
2022/06/15 03:23:25;;;;;;;;;28.50;25.50;;;;;20.15;77.32;100148.63;5077499;28;45481;-72
2022/06/15 03:25:58;;;;;;;;;26.50;23.25;;;;;20.35;77.36;100188.13;5078314;28;45385;-75
2022/06/15 03:28:25;;;;;;;;;24.50;22.50;;;;;20.33;77.07;100189.03;5078473;28;45687;-73
2022/06/15 03:30:51;;;;;;;;;25.00;22.75;;;;;20.25;77.07;100181.19;5078569;28;45381;-73
2022/06/15 03:33:18;;;;;;;;;24.00;19.75;;;;;20.30;77.36;100178.47;5076760;28;45410;-74
2022/06/15 03:35:45;;;;;;;;;25.25;23.25;;;;;20.32;77.06;100187.28;5084556;27;45449;-71
2022/06/15 03:38:11;;;;;;;;;26.25;25.25;;;;;20.16;77.29;100170.72;5087127;27;45465;-72
2022/06/15 03:40:42;;;;;;;;;23.75;22.00;;;;;20.31;77.70;100190.81;5085383;27;45446;-72
2022/06/15 03:43:09;;;;;;;;;26.50;24.25;;;;;20.04;77.34;100151.44;5085781;27;45699;-76
2022/06/15 03:45:36;;;;;;;;;25.50;24.00;;;;;20.26;77.21;100186.47;5087136;27;45324;-72
2022/06/15 03:48:02;;;;;;;;;24.00;22.50;;;;;20.21;77.15;100195.38;5086633;27;45323;-71
2022/06/15 03:50:31;;;;;;;;;26.75;25.50;;;;;20.19;76.88;100195.44;5087230;27;45372;-72
2022/06/15 03:52:58;;;;;;;;;25.50;23.50;;;;;19.97;77.34;100155.06;5086417;27;45386;-71
2022/06/15 03:55:25;;;;;;;;;28.00;24.50;;;;;20.29;77.80;100195.28;5083075;27;46695;-71
2022/06/15 03:57:50;;;;;;;;;31.75;28.25;;;;;20.32;77.90;100192.59;5069706;27;45429;-72
2022/06/15 04:00:19;;;;;;;;;30.50;27.75;;;;;20.48;78.16;100204.69;5084786;27;46203;-72
2022/06/15 04:02:45;;;;;;;;;31.50;27.75;;;;;20.27;78.07;100153.75;5084662;27;45579;-79
2022/06/15 04:05:17;;;;;;;;;28.25;26.75;;;;;20.52;78.14;100179.88;5085621;27;45415;-72
2022/06/15 04:10:27;;;;;;;;;34.75;29.50;;;;;20.90;78.76;100212.00;5082474;27;45929;-73
2022/06/15 04:12:52;;;;;;;;;38.00;31.75;;;;;20.96;77.85;100206.56;5086262;27;45487;-73
2022/06/15 04:15:18;;;;;;;;;38.75;33.75;;;;;20.81;78.78;100207.69;5087072;27;47345;-79
2022/06/15 04:17:44;;;;;;;;;34.25;31.00;;;;;20.86;79.07;100217.34;5086432;27;45461;-73
2022/06/15 04:20:32;;;;;;;;;39.00;32.75;;;;;20.82;79.50;100212.13;5076615;27;45663;-73
2022/06/15 04:23:02;;;;;;;;;34.50;31.00;;;;;20.56;78.29;100173.59;5077160;28;45408;-73
2022/06/15 04:25:37;;;;;;;;;34.50;29.75;;;;;20.77;78.90;100222.84;5077569;28;45538;-73
2022/06/15 04:28:05;;;;;;;;;33.75;29.50;;;;;20.45;78.53;100165.84;5077200;28;45355;-73
2022/06/15 04:30:31;;;;;;;;;35.50;30.50;;;;;20.82;78.22;100228.06;5058400;28;47932;-74
2022/06/15 04:32:56;;;;;;;;;35.00;31.25;;;;;20.85;78.01;100230.66;5077306;28;45444;-74
2022/06/15 04:35:22;;;;;;;;;33.00;29.50;;;;;20.91;77.48;100221.69;5077733;28;45303;-80
2022/06/15 04:37:48;;;;;;;;;33.50;30.50;;;;;20.93;77.41;100228.75;5077029;28;45590;-73
2022/06/15 04:40:13;;;;;;;;;30.50;28.00;;;;;20.98;76.89;100231.31;5076577;28;45912;-80
2022/06/15 04:42:42;;;;;;;;;28.75;27.75;;;;;21.02;77.05;100236.53;5077309;28;45390;-80
2022/06/15 04:45:10;;;;;;;;;27.50;26.00;;;;;20.94;76.75;100213.69;5077057;28;45772;-80
2022/06/15 04:47:36;;;;;;;;;29.00;26.50;;;;;21.17;76.13;100242.47;5076942;28;45678;-74
2022/06/15 04:50:03;;;;;;;;;31.67;25.67;;;;;21.21;75.80;100239.75;5076571;28;45561;-73
2022/06/15 04:52:28;;;;;;;;;33.00;28.50;;;;;21.20;75.34;100240.63;5077572;28;45263;-73
2022/06/15 04:54:54;;;;;;;;;27.50;27.25;;;;;21.28;75.45;100251.13;5076602;28;45462;-74
2022/06/15 04:57:19;;;;;;;;;24.50;22.75;;;;;21.29;74.79;100254.66;5078173;27;45418;-80
2022/06/15 04:59:45;;;;;;;;;28.67;25.33;;;;;21.32;74.93;100252.81;5077596;28;45429;-73
2022/06/15 05:02:11;;;;;;;;;28.75;25.25;;;;;21.40;75.13;100263.31;5076196;28;45222;-73
2022/06/15 05:04:36;;;;;;;;;31.25;29.00;;;;;21.48;75.17;100261.41;5077055;28;45572;-80
2022/06/15 05:07:02;;;;;;;;;33.50;29.00;;;;;21.55;75.08;100262.19;5076589;28;45519;-73
2022/06/15 05:09:29;;;;;;;;;33.75;28.00;;;;;21.32;74.82;100212.09;5076397;28;46536;-77
2022/06/15 05:11:55;;;;;;;;;33.00;27.50;;;;;21.48;74.55;100236.63;5076369;28;45507;-73
2022/06/15 05:14:20;;;;;;;;;37.50;32.00;;;;;;;;5077314;28;45485;-80
2022/06/15 05:16:46;;;;;;;;;31.75;29.50;;;;;21.76;74.66;100271.47;5076765;28;45722;-79
2022/06/15 05:19:12;;;;;;;;;26.75;25.25;;;;;21.76;73.68;100261.72;5076712;28;45922;-79
2022/06/15 05:21:41;;;;;;;;;31.33;26.67;;;;;21.78;73.57;100267.88;5076908;28;45513;-76
2022/06/15 05:24:08;;;;;;;;;31.75;27.50;;;;;21.46;73.94;100196.78;5057084;28;45550;-75
2022/06/15 05:26:34;;;;;;;;;31.00;30.00;;;;;21.93;73.50;100261.38;5072467;28;45431;-78
2022/06/15 05:28:59;;;;;;;;;34.50;30.25;;;;;22.02;73.64;100263.84;5076362;28;46062;-73
2022/06/15 05:31:25;;;;;;;;;35.25;31.50;;;;;22.12;72.98;100260.97;5076739;28;45477;-74
2022/06/15 05:33:53;;;;;;;;;33.25;29.50;;;;;22.14;73.10;100264.47;5080927;27;45623;-81
2022/06/15 05:36:30;;;;;;;;;34.00;29.00;;;;;22.10;72.53;100257.47;5085491;27;45512;-81
2022/06/15 05:38:56;;;;;;;;;37.75;31.25;;;;;22.15;72.89;100275.09;5084984;27;45523;-72
2022/06/15 05:41:22;;;;;;;;;37.50;33.00;;;;;22.15;72.74;100274.22;5083500;27;45504;-81
2022/06/15 05:43:51;;;;;;;;;32.33;27.00;;;;;22.17;72.32;100278.59;5085165;27;45452;-77
2022/06/15 05:46:26;;;;;;;;;37.50;31.25;;;;;22.22;72.50;100289.13;5076713;27;45541;-73
2022/06/15 05:48:54;;;;;;;;;34.75;30.00;;;;;22.28;72.16;100275.69;5072865;28;45470;-81
2022/06/15 05:51:20;;;;;;;;;34.25;31.25;;;;;22.32;71.96;100281.84;5074184;28;45442;-80
2022/06/15 05:53:45;;;;;;;;;32.50;30.00;;;;;22.23;72.28;100262.47;5074468;28;45429;-80
2022/06/15 05:56:11;;;;;;;;;38.75;31.00;;;;;22.43;71.74;100285.16;5083129;27;46041;-77
2022/06/15 05:58:36;;;;;;;;;34.67;30.33;;;;;22.38;71.72;100269.28;5084688;27;45364;-78
2022/06/15 06:01:09;;;;;;;;;34.50;30.75;;;;;22.60;71.64;100290.06;5076727;27;45458;-77
2022/06/15 06:03:35;;;;;;;;;46.75;37.25;;;;;22.67;71.04;100290.81;5073752;28;46036;-77
2022/06/15 06:06:01;;;;;;;;;31.67;29.67;;;;;22.46;71.05;100252.25;5073857;28;45664;-78
2022/06/15 06:08:26;;;;;;;;;39.25;30.75;;;;;22.75;71.33;100294.16;5073786;28;46132;-79
2022/06/15 06:10:52;;;;;;;;;36.25;30.50;;;;;22.55;70.95;100255.56;5073698;28;45496;-80
2022/06/15 06:13:17;;;;;;;;;38.33;29.33;;;;;22.84;70.87;100300.13;5074877;28;46384;-80
2022/06/15 06:15:43;;;;;;;;;33.75;28.50;;;;;22.84;71.45;100305.47;5074326;28;45506;-81
2022/06/15 06:18:08;;;;;;;;;32.50;31.00;;;;;22.73;70.74;100280.00;5073457;28;45674;-77
2022/06/15 06:20:34;;;;;;;;;32.50;28.00;;;;;22.96;70.77;100303.38;5073970;28;45442;-80
2022/06/15 06:22:59;;;;;;;;;34.50;30.50;;;;;22.96;70.60;100292.72;5074624;28;45580;-76
2022/06/15 06:25:25;;;;;;;;;34.50;31.00;;;;;23.02;70.13;100287.31;5072726;27;45308;-78
2022/06/15 06:27:50;;;;;;;;;31.00;28.75;;;;;23.32;69.41;100306.09;5075334;27;46154;-77
2022/06/15 06:30:16;;;;;;;;;35.33;28.67;;;;;23.44;69.04;100300.41;5055994;28;45559;-75
2022/06/15 06:32:42;;;;;;;;;29.00;26.67;;;;;23.57;68.87;100301.81;5074928;27;45409;-72
2022/06/15 06:35:08;;;;;;;;;34.00;28.00;;;;;23.75;68.83;100299.56;5074847;28;45449;-72
2022/06/15 06:37:35;;;;;;;;;33.33;31.33;;;;;23.72;67.85;100254.31;5074730;28;45629;-73
2022/06/15 06:40:01;;;;;;;;;28.00;25.67;;;;;24.11;67.08;100264.75;5029935;27;45698;-71
2022/06/15 06:42:27;;;;;;;;;35.50;28.50;;;;;24.54;66.57;100299.03;5074978;28;45523;-74
2022/06/15 06:44:52;;;;;;;;;34.67;29.67;;;;;24.79;65.49;100293.78;5074656;28;45680;-75
2022/06/15 06:47:18;;;;;;;;;37.75;32.50;;;;;25.30;64.42;100299.22;5074573;28;45449;-70
2022/06/15 06:49:44;;;;;;;;;39.25;32.50;;;;;26.00;62.71;100306.50;5074401;28;45445;-71
2022/06/15 06:52:09;;;;;;;;;30.67;29.33;;;;;26.88;60.20;100309.34;5075598;28;45556;-70
2022/06/15 06:54:35;;;;;;;;;37.50;31.75;;;;;27.44;57.42;100258.72;5078262;28;45528;-71
2022/06/15 06:57:01;;;;;;;;;33.33;28.67;;;;;27.87;53.88;100155.66;5077937;28;45425;-72
2022/06/15 06:59:26;;;;;;;;;27.33;25.33;;;;;29.38;52.28;100239.47;5093048;27;45549;-72
2022/06/15 07:01:52;;;;;;;;;26.67;25.67;;;;;29.82;51.21;100300.84;5093981;27;46031;-72
2022/06/15 07:04:19;;;;;;;;;28.33;25.33;;;;;30.40;48.82;100306.72;5077613;28;45487;-76
2022/06/15 07:06:45;;;;;;;;;27.33;25.67;;;;;30.28;49.04;100295.66;5077351;28;46162;-82
2022/06/15 07:09:12;;;;;;;;;28.00;25.67;;;;;30.17;50.56;100303.44;5078330;28;45697;-84
2022/06/15 07:11:41;;;;;;;;;27.67;26.33;;;;;30.18;49.50;100318.66;5078067;28;45503;-73
2022/06/15 07:14:07;;;;;;;;;31.33;29.00;;;;;30.02;49.37;100315.06;5078503;28;45394;-88
2022/06/15 07:16:32;;;;;;;;;25.67;24.33;;;;;29.96;49.89;100321.66;5077637;28;45914;-88
2022/06/15 07:18:58;;;;;;;;;30.33;28.00;;;;;29.93;50.20;100317.31;5078454;28;45933;-72
2022/06/15 07:21:27;;;;;;;;;27.00;25.00;;;;;30.13;50.34;100312.66;5078567;28;45615;-89
2022/06/15 07:23:55;;;;;;;;;25.33;24.33;;;;;31.34;47.49;100264.38;5078908;28;45499;-84
2022/06/15 07:26:31;;;;;;;;;26.33;25.67;;;;;33.06;44.17;100323.63;5077610;28;45480;-80
2022/06/15 07:28:56;;;;;;;;;29.00;27.00;;;;;33.53;42.36;100320.53;5078345;28;45560;-82
2022/06/15 07:31:44;;;;;;;;;28.33;26.67;;;;;33.51;42.17;100323.34;5078248;28;45504;-79
2022/06/15 07:34:10;;;;;;;;;30.33;28.00;;;;;35.33;37.93;100310.97;5075143;27;45492;-80
2022/06/15 07:36:39;;;;;;;;;28.00;27.67;;;;;35.94;37.29;100332.47;5077212;28;47108;-79
2022/06/15 07:39:05;;;;;;;;;28.67;25.00;;;;;35.69;38.07;100328.13;5080634;28;45536;-77
2022/06/15 07:41:32;;;;;;;;;26.67;25.33;;;;;37.80;34.32;100297.91;5080529;28;45552;-81
2022/06/15 07:43:57;;;;;;;;;27.00;25.00;;;;;38.49;33.28;100296.28;5078962;28;45370;-80
2022/06/15 07:46:23;;;;;;;;;27.33;23.33;;;;;38.71;32.28;100313.44;5077571;28;45546;-81
2022/06/15 07:51:33;;;;;;;;;24.67;23.67;;;;;42.30;27.67;100353.56;5076171;28;45368;-83
2022/06/15 07:54:01;;;;;;;;;24.00;23.67;;;;;44.03;25.75;100349.09;5077548;28;45358;-76
2022/06/15 07:56:27;;;;;;;;;24.00;24.00;;;;;45.34;24.99;100365.97;5077841;28;45983;-76
2022/06/15 07:58:53;;;;;;;;;22.67;21.67;;;;;46.39;22.97;100376.97;5078008;27;45543;-79
2022/06/15 08:01:19;;;;;;;;;22.67;22.67;;;;;46.88;21.75;100352.50;5078635;28;45381;-80
2022/06/15 08:03:45;;;;;;;;;26.67;25.33;;;;;46.86;21.85;100338.00;5077072;27;45511;-79
2022/06/15 08:06:11;;;;;;;;;20.67;20.67;;;;;47.06;21.15;100325.25;5078109;28;45985;-77
2022/06/15 08:08:36;;;;;;;;;23.33;21.33;;;;;47.62;21.29;100368.75;5078575;28;45461;-77
2022/06/15 08:11:02;;;;;;;;;20.33;19.67;;;;;47.05;22.13;100364.16;5078251;28;45489;-78
2022/06/15 08:13:28;;;;;;;;;22.33;21.67;;;;;46.75;21.63;100362.31;5078936;28;45449;-77
2022/06/15 08:15:53;;;;;;;;;23.00;22.00;;;;;46.92;22.29;100359.34;5077655;28;46036;-78
2022/06/15 08:18:26;;;;;;;;;21.33;20.00;;;;;47.21;20.71;100362.00;5078163;28;45166;-70
2022/06/15 08:21:07;;;;;;;;;25.00;22.00;;;;;44.08;24.01;100360.44;5078340;28;45476;-70
2022/06/15 08:23:35;;;;;;;;;24.00;23.67;;;;;40.31;27.51;100270.84;5078061;28;45425;-70
2022/06/15 08:26:10;;;;;;;;;35.75;31.50;;;;;37.72;30.17;100225.97;5077834;28;45540;-67
2022/06/15 08:28:39;;;;;;;;;53.00;40.00;;;;;36.76;33.00;100340.34;5059469;28;45586;-70
2022/06/15 08:31:05;;;;;;;;;39.75;33.00;;;;;35.33;35.03;100323.69;5078142;28;45305;-71
2022/06/15 08:33:31;;;;;;;;;32.67;29.67;;;;;34.06;37.08;100313.16;5078526;28;45324;-69
2022/06/15 08:35:57;;;;;;;;;32.67;29.67;;;;;33.34;39.13;100356.13;5078186;28;45359;-70
2022/06/15 08:38:25;;;;;;;;;61.25;48.00;;;;;31.03;40.43;100141.25;5077863;27;45371;-71
2022/06/15 08:40:56;;;;;;;;;48.50;38.75;;;;;31.67;42.61;100368.56;5077786;28;45490;-71
2022/06/15 08:43:55;;;;;;;;;51.50;42.00;;;;;30.97;44.23;100362.81;5077981;28;45285;-70
2022/06/15 08:46:33;;;;;;;;;41.00;33.25;;;;;30.26;45.48;100367.63;5071736;28;46410;-71
2022/06/15 08:49:10;;;;;;;;;45.25;36.00;;;;;29.73;47.01;100368.69;5057473;28;46126;-72
2022/06/15 08:51:56;;;;;;;;;37.75;31.00;;;;;29.28;48.54;100372.75;5057477;28;45518;-73
2022/06/15 08:54:29;;;;;;;;;42.50;34.50;;;;;28.66;49.68;100338.13;5057687;28;45489;-71
2022/06/15 08:57:07;;;;;;;;;38.00;33.00;;;;;28.46;50.97;100367.75;5056541;28;45343;-71
2022/06/15 08:59:44;;;;;;;;;33.33;30.00;;;;;28.13;51.33;100366.56;5057213;28;45320;-72
2022/06/15 09:02:16;;;;;;;;;33.33;29.67;;;;;27.89;52.49;100368.50;5057065;28;45383;-70
2022/06/15 09:05:07;;;;;;;;;33.00;30.00;;;;;27.65;53.26;100378.50;5057617;28;45395;-72
2022/06/15 09:07:41;;;;;;;;;32.75;30.00;;;;;27.46;53.82;100383.81;5057291;28;45890;-72
2022/06/15 09:10:10;;;;;;;;;29.67;27.67;;;;;27.30;54.75;100388.09;5057126;28;45453;-72
2022/06/15 09:13:01;;;;;;;;;30.75;27.75;;;;;27.14;54.78;100386.00;5057191;28;45359;-70
2022/06/15 09:15:59;;;;;;;;;33.75;30.00;;;;;26.99;55.68;100378.56;5060793;28;45436;-72
2022/06/15 09:18:32;;;;;;;;;40.75;34.75;;;;;26.88;56.42;100387.06;5076952;28;45413;-72
2022/06/15 09:21:09;;;;;;;;;35.75;31.25;;;;;26.77;56.66;100387.47;5077213;28;45327;-69
2022/06/15 09:24:24;;;;;;;;;30.33;27.67;;;;;27.43;57.51;100365.13;5077713;28;45245;-73
2022/06/15 09:26:53;;;;;;;;;29.33;28.00;;;;;28.45;54.48;100374.94;5072353;28;45270;-72
2022/06/15 09:29:27;;;;;;;;;30.33;27.33;;;;;29.27;52.91;100373.72;5076850;28;46498;-73
2022/06/15 09:32:00;;;;;;;;;29.67;24.67;;;;;29.97;51.18;100374.56;5076644;28;45218;-73
2022/06/15 09:34:33;;;;;;;;;24.33;23.00;;;;;30.62;50.01;100380.03;5076693;28;45486;-73
2022/06/15 09:36:59;;;;;;;;;26.67;26.00;;;;;31.15;48.45;100379.75;5076866;28;45380;-72
2022/06/15 09:39:27;;;;;;;;;24.67;23.00;;;;;31.60;48.08;100369.91;5076828;28;45417;-76
2022/06/15 09:42:06;;;;;;;;;28.00;25.33;;;;;32.03;46.98;100378.09;5076915;27;45472;-77
2022/06/15 09:44:50;;;;;;;;;25.33;24.33;;;;;32.47;45.44;100387.91;5076853;27;45385;-70
2022/06/15 09:47:41;;;;;;;;;22.67;22.67;;;;;32.83;45.59;100384.72;5076234;28;45363;-73
2022/06/15 09:50:24;;;;;;;;;22.67;21.67;;;;;33.17;44.90;100378.94;5075617;27;45673;-69
2022/06/15 09:53:06;;;;;;;;;25.67;24.00;;;;;33.47;43.58;100386.81;5076290;28;45338;-76
2022/06/15 09:55:36;;;;;;;;;27.67;26.33;;;;;33.67;43.16;100382.75;5077060;28;45433;-76
2022/06/15 09:58:05;;;;;;;;;21.33;21.33;;;;;33.41;42.74;100328.53;5077115;28;45350;-72
2022/06/15 10:00:44;;;;;;;;;24.33;22.67;;;;;33.95;41.93;100392.53;5090594;27;45691;-73
2022/06/15 10:03:31;;;;;;;;;23.33;20.00;;;;;34.15;41.98;100393.00;5073480;28;45403;-70
2022/06/15 10:06:04;;;;;;;;;23.33;20.00;;;;;33.88;41.79;100321.66;5073418;28;45380;-72
2022/06/15 10:08:30;;;;;;;;;24.33;23.00;;;;;34.48;41.38;100392.41;5052582;28;45514;-78
2022/06/15 10:10:59;;;;;;;;;28.67;26.33;;;;;34.65;41.40;100394.78;5061673;28;45375;-76
2022/06/15 10:13:31;;;;;;;;;23.67;22.67;;;;;34.73;40.72;100393.34;5073079;28;45537;-76
2022/06/15 10:16:01;;;;;;;;;23.67;23.67;;;;;34.30;40.60;100305.09;5072594;28;45259;-75
2022/06/15 10:18:44;;;;;;;;;21.67;21.00;;;;;35.03;40.37;100392.91;5071831;27;45521;-72
2022/06/15 10:21:12;;;;;;;;;20.67;20.33;;;;;35.20;39.65;100399.81;5072859;28;46273;-74
2022/06/15 10:23:47;;;;;;;;;25.00;23.67;;;;;35.35;39.01;100405.91;5073290;28;45508;-75
2022/06/15 10:26:40;;;;;;;;;23.33;22.33;;;;;35.55;39.46;100404.38;5073061;28;45350;-74
2022/06/15 10:29:31;;;;;;;;;21.00;20.33;;;;;35.89;38.61;100399.06;5073613;28;45525;-72
2022/06/15 10:32:07;;;;;;;;;21.33;20.33;;;;;36.26;37.73;100402.47;5069878;28;46346;-73
2022/06/15 10:35:03;;;;;;;;;23.00;21.00;;;;;36.76;36.62;100402.97;5073203;28;45259;-74
2022/06/15 10:37:35;;;;;;;;;22.67;21.67;;;;;37.29;35.24;100412.25;5073306;28;45453;-74
2022/06/15 10:40:18;;;;;;;;;22.00;22.00;;;;;37.57;35.51;100414.34;5073458;28;45393;-74
2022/06/15 10:42:53;;;;;;;;;21.00;20.00;;;;;36.32;35.07;100148.19;5073146;27;46047;-74
2022/06/15 10:45:22;;;;;;;;;19.00;18.00;;;;;38.26;34.36;100412.97;5072252;28;45180;-74
2022/06/15 10:47:56;;;;;;;;;19.00;19.00;;;;;38.36;34.24;100416.59;5072636;28;45443;-72
2022/06/15 10:50:29;;;;;;;;;20.67;19.67;;;;;38.18;34.22;100426.41;5072442;28;45527;-74
2022/06/15 10:53:00;;;;;;;;;21.67;19.67;;;;;37.19;34.16;100330.47;5072598;28;45555;-74
2022/06/15 11:04:45;;;;;;;;;21.00;19.33;;;;;36.65;36.45;100419.31;5092841;27;45267;-71
2022/06/15 11:07:34;;;;;;;;;27.00;22.33;;;;;36.09;36.40;100352.13;5093047;27;45564;-71
2022/06/15 11:10:08;;;;;;;;;19.33;19.33;;;;;36.06;36.63;100356.97;5090357;27;45471;-71
2022/06/15 11:12:47;;;;;;;;;20.67;19.33;;;;;36.22;37.05;100418.16;5061169;28;45489;-74
2022/06/15 11:15:13;;;;;;;;;20.00;20.00;;;;;36.02;37.56;100418.88;5079378;28;45516;-71
2022/06/15 11:18:03;;;;;;;;;18.00;17.33;;;;;35.84;37.49;100435.63;5079629;28;45780;-70
2022/06/15 11:20:50;;;;;;;;;19.00;18.33;;;;;35.67;37.80;100436.06;5079337;28;45600;-70
2022/06/15 11:23:51;;;;;;;;;23.00;20.00;;;;;35.53;38.29;100436.25;5079504;28;45418;-71
2022/06/15 11:29:30;;;;;;;;;19.67;18.00;;;;;35.21;38.68;100431.41;5079245;28;45512;-70
2022/06/15 11:32:03;;;;;;;;;20.67;19.33;;;;;35.08;39.67;100430.56;5079340;28;45299;-70
2022/06/15 11:34:33;;;;;;;;;19.67;19.33;;;;;33.97;39.26;100276.75;5079456;28;45449;-70
2022/06/15 11:37:06;;;;;;;;;20.00;19.67;;;;;34.90;39.30;100430.06;5070685;27;45564;-72
2022/06/15 11:39:47;;;;;;;;;20.00;20.00;;;;;34.47;39.30;100360.84;5058124;28;45274;-76
2022/06/15 11:42:16;;;;;;;;;20.00;19.33;;;;;34.79;39.84;100433.59;5058426;28;45520;-78
2022/06/15 11:44:43;;;;;;;;;20.00;19.00;;;;;34.72;39.73;100437.72;5059221;28;45160;-72
2022/06/15 11:47:25;;;;;;;;;21.33;20.33;;;;;34.71;40.02;100438.72;5058712;28;46080;-73